Time;durP1;ratioP1;P1;durP2;ratioP2;P2;SDS_P1;SDS_P2;PMS_P1;PMS_P2;Temp;Humidity;BMP_temperature;BMP_pressure;BME280_temperature;BME280_humidity;BME280_pressure;Samples;Min_cycle;Max_cycle;Signal;HPM_P1;HPM_P2
2022/05/15 00:01:55;;;;;;;13.40;5.80;;;;;;;;;;5013418;28;20222;-75
2022/05/15 00:04:23;;;;;;;11.17;5.20;;;;;;;;;;4993475;28;20735;-75
2022/05/15 00:06:52;;;;;;;12.60;5.43;;;;;;;;;;4994276;28;20228;-75
2022/05/15 00:09:20;;;;;;;10.97;4.80;;;;;;;;;;5011618;28;20204;-75
2022/05/15 00:11:49;;;;;;;10.43;4.47;;;;;;;;;;5029558;28;20257;-75
2022/05/15 00:14:17;;;;;;;16.40;6.00;;;;;;;;;;5019807;28;20207;-75
2022/05/15 00:16:46;;;;;;;9.83;5.47;;;;;;;;;;5033202;28;20647;-75
2022/05/15 00:19:15;;;;;;;13.73;6.20;;;;;;;;;;5027061;28;20311;-75
2022/05/15 00:21:44;;;;;;;10.13;5.10;;;;;;;;;;5013170;28;20217;-75
2022/05/15 00:24:12;;;;;;;14.40;5.43;;;;;;;;;;5017612;28;20215;-75
2022/05/15 00:26:41;;;;;;;11.47;5.53;;;;;;;;;;5031543;28;20749;-75
2022/05/15 00:29:09;;;;;;;12.60;5.63;;;;;;;;;;5031570;28;20212;-75
2022/05/15 00:31:38;;;;;;;13.00;5.23;;;;;;;;;;5036884;28;20207;-75
2022/05/15 00:34:06;;;;;;;12.03;5.70;;;;;;;;;;5017900;28;20727;-75
2022/05/15 00:36:36;;;;;;;10.53;5.07;;;;;;;;;;5074527;23;20271;-75
2022/05/15 00:39:05;;;;;;;15.17;5.73;;;;;;;;;;5062520;23;20289;-75
2022/05/15 00:41:34;;;;;;;10.93;5.20;;;;;;;;;;5051445;28;20207;-75
2022/05/15 00:44:02;;;;;;;11.87;5.53;;;;;;;;;;5049622;28;20206;-74
2022/05/15 00:46:32;;;;;;;12.17;5.13;;;;;;;;;;5036278;28;20684;-74
2022/05/15 00:49:01;;;;;;;8.17;4.80;;;;;;;;;;5033744;28;20238;-74
2022/05/15 00:51:31;;;;;;;9.10;5.07;;;;;;;;;;5030617;28;20216;-74
2022/05/15 00:54:05;;;;;;;10.13;4.80;;;;;;;;;;5031510;28;20338;-74
2022/05/15 00:56:35;;;;;;;9.43;4.63;;;;;;;;;;5035328;28;20609;-74
2022/05/15 00:59:09;;;;;;;9.57;5.20;;;;;;;;;;5034618;28;20314;-74
2022/05/15 01:01:37;;;;;;;12.07;6.10;;;;;;;;;;5034362;28;20200;-75
2022/05/15 01:04:06;;;;;;;11.53;5.77;;;;;;;;;;5036050;28;20222;-74
2022/05/15 01:06:36;;;;;;;10.77;5.57;;;;;;;;;;5033968;28;20308;-75
2022/05/15 01:09:06;;;;;;;12.17;5.13;;;;;;;;;;5035807;28;20637;-74
2022/05/15 01:11:36;;;;;;;12.53;5.27;;;;;;;;;;5034554;28;20736;-74
2022/05/15 01:14:06;;;;;;;10.43;5.10;;;;;;;;;;5034940;28;20208;-74
2022/05/15 01:16:34;;;;;;;11.20;5.27;;;;;;;;;;5030395;28;20615;-74
2022/05/15 01:19:03;;;;;;;8.13;5.60;;;;;;;;;;5035749;28;20223;-74
2022/05/15 01:21:34;;;;;;;11.97;6.30;;;;;;;;;;5034102;28;20208;-74
2022/05/15 01:24:05;;;;;;;10.00;5.33;;;;;;;;;;5034890;28;20203;-74
2022/05/15 01:26:34;;;;;;;11.93;6.00;;;;;;;;;;5034148;28;20196;-74
2022/05/15 01:29:03;;;;;;;11.27;5.30;;;;;;;;;;5037563;28;20223;-74
2022/05/15 01:31:32;;;;;;;8.80;5.50;;;;;;;;;;5035230;28;20213;-74
2022/05/15 01:34:00;;;;;;;13.93;6.33;;;;;;;;;;5034337;28;20738;-74
2022/05/15 01:36:29;;;;;;;12.23;7.43;;;;;;;;;;5033262;28;20208;-74
2022/05/15 01:38:58;;;;;;;11.63;7.60;;;;;;;;;;5034091;28;20723;-74
2022/05/15 01:41:27;;;;;;;15.53;8.77;;;;;;;;;;5034410;28;20204;-74
2022/05/15 01:43:56;;;;;;;14.17;8.97;;;;;;;;;;5033919;28;20720;-74
2022/05/15 01:46:25;;;;;;;17.43;9.50;;;;;;;;;;5033326;28;20214;-74
2022/05/15 01:48:54;;;;;;;13.87;8.60;;;;;;;;;;5034789;28;20258;-74
2022/05/15 01:51:24;;;;;;;14.23;7.77;;;;;;;;;;5032576;28;20605;-74
2022/05/15 01:53:53;;;;;;;10.90;6.87;;;;;;;;;;5029952;28;20253;-74
2022/05/15 01:56:22;;;;;;;14.40;7.43;;;;;;;;;;5032883;28;20207;-74
2022/05/15 01:58:51;;;;;;;13.60;6.90;;;;;;;;;;5034965;28;20281;-74
2022/05/15 02:01:19;;;;;;;11.47;6.57;;;;;;;;;;5030336;28;20205;-74
2022/05/15 02:03:48;;;;;;;10.00;6.50;;;;;;;;;;5020158;28;20200;-74
2022/05/15 02:06:17;;;;;;;11.40;5.77;;;;;;;;;;5032975;28;20282;-74
2022/05/15 02:08:47;;;;;;;9.40;5.70;;;;;;;;;;5034559;28;20228;-74
2022/05/15 02:11:16;;;;;;;7.77;5.97;;;;;;;;;;5029920;28;20568;-74
2022/05/15 02:13:46;;;;;;;10.43;6.20;;;;;;;;;;5033942;28;20207;-74
2022/05/15 02:16:14;;;;;;;11.33;5.90;;;;;;;;;;5032703;28;20208;-74
2022/05/15 02:18:42;;;;;;;8.87;4.90;;;;;;;;;;5033756;28;20354;-74
2022/05/15 02:21:11;;;;;;;7.87;5.30;;;;;;;;;;5033843;28;20208;-74
2022/05/15 02:23:39;;;;;;;8.93;5.07;;;;;;;;;;5026353;28;20204;-74
2022/05/15 02:26:08;;;;;;;9.73;5.40;;;;;;;;;;5032808;28;20210;-74
2022/05/15 02:28:37;;;;;;;9.23;4.73;;;;;;;;;;5035054;28;20498;-74
2022/05/15 02:31:07;;;;;;;9.70;5.30;;;;;;;;;;5035858;28;20222;-74
2022/05/15 02:33:36;;;;;;;8.13;4.83;;;;;;;;;;5033946;28;20232;-74
2022/05/15 02:36:04;;;;;;;8.37;4.70;;;;;;;;;;5031977;28;20551;-74
2022/05/15 02:38:33;;;;;;;10.40;4.90;;;;;;;;;;5033093;28;20266;-74
2022/05/15 02:41:01;;;;;;;10.23;5.10;;;;;;;;;;5032503;28;20578;-74
2022/05/15 02:43:30;;;;;;;8.70;5.30;;;;;;;;;;5030872;28;20214;-74
2022/05/15 02:45:58;;;;;;;8.17;5.00;;;;;;;;;;5033215;28;20223;-74
2022/05/15 02:51:14;;;;;;;12.03;5.03;;;;;;;;;;5033190;28;20666;-74
2022/05/15 02:53:43;;;;;;;7.10;4.83;;;;;;;;;;5031793;28;20265;-74
2022/05/15 02:56:13;;;;;;;10.00;5.90;;;;;;;;;;5032690;28;20203;-74
2022/05/15 02:58:41;;;;;;;12.50;5.90;;;;;;;;;;5030927;28;20290;-74
2022/05/15 03:01:10;;;;;;;13.00;5.67;;;;;;;;;;5033114;28;20208;-74
2022/05/15 03:03:40;;;;;;;11.27;5.57;;;;;;;;;;5031614;28;20208;-74
2022/05/15 03:06:08;;;;;;;9.70;5.67;;;;;;;;;;5032460;28;20570;-74
2022/05/15 03:08:38;;;;;;;9.33;5.60;;;;;;;;;;5032649;28;20224;-74
2022/05/15 03:11:06;;;;;;;9.03;5.17;;;;;;;;;;5030141;28;20555;-74
2022/05/15 03:13:36;;;;;;;10.23;5.90;;;;;;;;;;5028935;28;20196;-74
2022/05/15 03:16:05;;;;;;;11.17;5.40;;;;;;;;;;5029834;28;20587;-74
2022/05/15 03:18:33;;;;;;;10.37;5.67;;;;;;;;;;5048224;23;20766;-74
2022/05/15 03:21:03;;;;;;;12.13;6.30;;;;;;;;;;5050728;23;20277;-74
2022/05/15 03:23:31;;;;;;;11.07;5.53;;;;;;;;;;5029865;28;20207;-74
2022/05/15 03:26:00;;;;;;;10.90;6.33;;;;;;;;;;5030886;28;20650;-74
2022/05/15 03:28:28;;;;;;;11.60;6.27;;;;;;;;;;5047529;28;20234;-74
2022/05/15 03:30:57;;;;;;;10.30;6.27;;;;;;;;;;5039792;28;20200;-74
2022/05/15 03:33:25;;;;;;;9.73;6.33;;;;;;;;;;5028247;28;20258;-74
2022/05/15 03:35:53;;;;;;;13.90;7.73;;;;;;;;;;5032908;28;20207;-74
2022/05/15 03:38:23;;;;;;;10.13;6.73;;;;;;;;;;5033133;28;20224;-74
2022/05/15 03:40:52;;;;;;;13.00;7.23;;;;;;;;;;5030892;28;20254;-74
2022/05/15 03:43:20;;;;;;;14.70;6.97;;;;;;;;;;5032162;28;20249;-74
2022/05/15 03:45:48;;;;;;;13.77;7.50;;;;;;;;;;5032708;28;20203;-74
2022/05/15 03:48:17;;;;;;;12.70;6.77;;;;;;;;;;5032337;28;20263;-74
2022/05/15 03:50:45;;;;;;;12.03;7.20;;;;;;;;;;5031757;28;20204;-74
2022/05/15 03:53:14;;;;;;;14.70;7.90;;;;;;;;;;5031036;28;20282;-74
2022/05/15 03:55:43;;;;;;;13.60;7.30;;;;;;;;;;5030460;28;20207;-74
2022/05/15 03:58:12;;;;;;;10.73;6.73;;;;;;;;;;5018369;28;20700;-74
2022/05/15 04:00:41;;;;;;;12.10;6.30;;;;;;;;;;5029556;28;20207;-74
2022/05/15 04:03:10;;;;;;;10.70;6.70;;;;;;;;;;5032704;28;20250;-74
2022/05/15 04:05:38;;;;;;;14.10;7.83;;;;;;;;;;5031487;28;20307;-73
2022/05/15 04:08:07;;;;;;;11.80;7.03;;;;;;;;;;5032560;28;20285;-73
2022/05/15 04:10:35;;;;;;;13.10;7.27;;;;;;;;;;5030693;28;20352;-73
2022/05/15 04:13:05;;;;;;;12.23;6.70;;;;;;;;;;5036064;28;20212;-74
2022/05/15 04:15:34;;;;;;;13.20;7.10;;;;;;;;;;5033124;28;20199;-74
2022/05/15 04:18:02;;;;;;;10.43;6.63;;;;;;;;;;5032509;28;20228;-73
2022/05/15 04:20:30;;;;;;;10.50;6.90;;;;;;;;;;5031322;28;20571;-73
2022/05/15 04:22:59;;;;;;;13.17;6.93;;;;;;;;;;5044567;28;20200;-73
2022/05/15 04:25:28;;;;;;;17.03;8.17;;;;;;;;;;5030421;28;20262;-74
2022/05/15 04:27:56;;;;;;;10.83;6.33;;;;;;;;;;5032140;28;20236;-73
2022/05/15 04:30:28;;;;;;;12.10;6.47;;;;;;;;;;5032591;28;20232;-74
2022/05/15 04:32:56;;;;;;;10.90;6.50;;;;;;;;;;5036977;28;20212;-73
2022/05/15 04:35:25;;;;;;;12.53;6.47;;;;;;;;;;5035920;28;20212;-73
2022/05/15 04:37:53;;;;;;;9.90;6.27;;;;;;;;;;5035627;28;20568;-73
2022/05/15 04:40:22;;;;;;;13.67;6.00;;;;;;;;;;5034032;28;20196;-74
2022/05/15 04:42:50;;;;;;;10.23;5.83;;;;;;;;;;5017124;28;20219;-74
2022/05/15 04:45:19;;;;;;;9.97;5.50;;;;;;;;;;5024941;28;20203;-73
2022/05/15 04:47:49;;;;;;;9.10;5.77;;;;;;;;;;5036099;28;20648;-74
2022/05/15 04:50:18;;;;;;;10.07;6.40;;;;;;;;;;5034657;28;20235;-74
2022/05/15 04:52:48;;;;;;;8.90;5.93;;;;;;;;;;5033788;28;20200;-74
2022/05/15 04:55:17;;;;;;;8.70;6.40;;;;;;;;;;5034053;28;20204;-74
2022/05/15 04:57:45;;;;;;;13.70;6.83;;;;;;;;;;5034121;28;20224;-74
2022/05/15 05:00:17;;;;;;;12.23;7.30;;;;;;;;;;5034219;28;20258;-74
2022/05/15 05:02:48;;;;;;;13.10;7.77;;;;;;;;;;5035900;28;20227;-74
2022/05/15 05:05:17;;;;;;;13.90;7.00;;;;;;;;;;5035177;28;20211;-74
2022/05/15 05:07:45;;;;;;;10.37;6.70;;;;;;;;;;5035429;28;20220;-73
2022/05/15 05:10:14;;;;;;;12.20;6.60;;;;;;;;;;5034040;28;20327;-74
2022/05/15 05:12:43;;;;;;;13.53;6.83;;;;;;;;;;5036661;28;20292;-74
2022/05/15 05:15:13;;;;;;;13.20;7.23;;;;;;;;;;5035508;28;20222;-74
2022/05/15 05:17:41;;;;;;;15.07;6.50;;;;;;;;;;5019918;28;20220;-74
2022/05/15 05:20:13;;;;;;;14.90;7.10;;;;;;;;;;5033992;28;20279;-74
2022/05/15 05:22:42;;;;;;;12.67;6.70;;;;;;;;;;5032433;28;20202;-74
2022/05/15 05:25:11;;;;;;;10.37;6.87;;;;;;;;;;5034872;28;20196;-74
2022/05/15 05:27:41;;;;;;;10.43;6.57;;;;;;;;;;5021474;28;20228;-74
2022/05/15 05:30:11;;;;;;;8.43;6.03;;;;;;;;;;5033686;28;20282;-74
2022/05/15 05:32:39;;;;;;;14.10;6.83;;;;;;;;;;5034335;28;20207;-74
2022/05/15 05:35:09;;;;;;;9.97;6.10;;;;;;;;;;5032244;28;20204;-74
2022/05/15 05:37:39;;;;;;;14.27;6.60;;;;;;;;;;5029923;28;20690;-74
2022/05/15 05:40:08;;;;;;;11.67;6.30;;;;;;;;;;5028925;28;20611;-74
2022/05/15 05:42:36;;;;;;;12.70;6.93;;;;;;;;;;5033373;28;20210;-74
2022/05/15 05:45:05;;;;;;;9.57;6.10;;;;;;;;;;5034835;28;20203;-74
2022/05/15 05:47:34;;;;;;;12.50;6.10;;;;;;;;;;5031139;28;20698;-74
2022/05/15 05:50:02;;;;;;;12.23;6.30;;;;;;;;;;5032920;28;20576;-73
2022/05/15 05:52:31;;;;;;;11.83;5.80;;;;;;;;;;5033613;28;20208;-72
2022/05/15 05:55:01;;;;;;;10.20;5.30;;;;;;;;;;5027076;28;20200;-74
2022/05/15 05:57:30;;;;;;;11.00;5.30;;;;;;;;;;5033204;28;20249;-73
2022/05/15 05:59:58;;;;;;;12.87;5.40;;;;;;;;;;5033592;28;20663;-74
2022/05/15 06:02:27;;;;;;;8.97;5.33;;;;;;;;;;5026902;28;20204;-73
2022/05/15 06:04:54;;;;;;;11.83;5.20;;;;;;;;;;5034863;28;20208;-73
2022/05/15 06:07:26;;;;;;;10.53;5.43;;;;;;;;;;5032367;28;20224;-73
2022/05/15 06:09:54;;;;;;;11.93;5.07;;;;;;;;;;5024218;28;20215;-74
2022/05/15 06:12:25;;;;;;;12.63;5.50;;;;;;;;;;5040272;28;20208;-74
2022/05/15 06:14:54;;;;;;;12.57;5.17;;;;;;;;;;5034184;28;20258;-73
2022/05/15 06:17:23;;;;;;;9.47;4.90;;;;;;;;;;5030177;28;20247;-73
2022/05/15 06:19:52;;;;;;;8.73;4.73;;;;;;;;;;5032166;28;20202;-73
2022/05/15 06:22:20;;;;;;;10.87;4.50;;;;;;;;;;5031641;28;20212;-74
2022/05/15 06:24:49;;;;;;;12.63;5.07;;;;;;;;;;5034260;28;20254;-74
2022/05/15 06:27:17;;;;;;;12.53;4.97;;;;;;;;;;5033530;28;20223;-73
2022/05/15 06:29:47;;;;;;;9.10;4.30;;;;;;;;;;5033850;28;20223;-75
2022/05/15 06:32:15;;;;;;;8.87;4.17;;;;;;;;;;5032418;28;20196;-74
2022/05/15 06:34:44;;;;;;;8.93;4.40;;;;;;;;;;5032900;28;20266;-74
2022/05/15 06:37:13;;;;;;;8.27;4.33;;;;;;;;;;5034197;28;20224;-74
2022/05/15 06:39:41;;;;;;;9.63;3.83;;;;;;;;;;5031774;28;20243;-73
2022/05/15 06:42:10;;;;;;;7.47;3.37;;;;;;;;;;5021970;28;20208;-73
2022/05/15 06:44:38;;;;;;;11.87;4.07;;;;;;;;;;5033508;28;20580;-74
2022/05/15 06:47:09;;;;;;;8.77;3.90;;;;;;;;;;5031137;28;20223;-74
2022/05/15 06:49:37;;;;;;;9.93;4.07;;;;;;;;;;5030469;28;20200;-74
2022/05/15 06:52:06;;;;;;;7.37;3.53;;;;;;;;;;5035958;28;20200;-74
2022/05/15 06:54:34;;;;;;;7.83;3.30;;;;;;;;;;5035119;28;20609;-73
2022/05/15 07:00:06;;;;;;;6.47;3.43;;;;;;;;;;4972148;28;20210;-74
2022/05/15 07:02:35;;;;;;;7.27;3.13;;;;;;;;;;4972302;28;20228;-73
2022/05/15 07:05:05;;;;;;;8.40;3.37;;;;;;;;;;5005060;28;20199;-74
2022/05/15 07:07:34;;;;;;;9.40;3.77;;;;;;;;;;5025228;28;20267;-73
2022/05/15 07:10:02;;;;;;;7.67;3.47;;;;;;;;;;5022712;28;20232;-74
2022/05/15 07:12:31;;;;;;;7.70;3.33;;;;;;;;;;5029013;28;20258;-74
2022/05/15 07:15:01;;;;;;;8.98;3.40;;;;;;;;;;5023768;28;20234;-75
2022/05/15 07:17:29;;;;;;;9.00;3.30;;;;;;;;;;5028788;28;20656;-76
2022/05/15 07:19:59;;;;;;;8.73;3.28;;;;;;;;;;5038224;28;20298;-74
2022/05/15 07:22:28;;;;;;;6.65;3.50;;;;;;;;;;5032906;28;20294;-74
2022/05/15 07:24:56;;;;;;;7.65;3.20;;;;;;;;;;5030077;28;20199;-74
2022/05/15 07:27:25;;;;;;;9.85;3.38;;;;;;;;;;5033926;28;20223;-74
2022/05/15 07:29:54;;;;;;;9.50;3.33;;;;;;;;;;5033275;28;20223;-74
2022/05/15 07:32:22;;;;;;;7.68;3.40;;;;;;;;;;5030222;28;20688;-74
2022/05/15 07:34:51;;;;;;;8.80;3.53;;;;;;;;;;5031057;28;20214;-74
2022/05/15 07:37:21;;;;;;;13.23;3.80;;;;;;;;;;5032573;28;20224;-74
2022/05/15 07:39:49;;;;;;;11.35;3.47;;;;;;;;;;5030786;28;20210;-74
2022/05/15 07:42:18;;;;;;;9.15;3.60;;;;;;;;;;5027698;28;20219;-74
2022/05/15 07:44:47;;;;;;;9.27;3.00;;;;;;;;;;5027820;28;20215;-74
2022/05/15 07:47:16;;;;;;;8.25;3.70;;;;;;;;;;5022152;28;20260;-75
2022/05/15 07:49:45;;;;;;;9.45;3.88;;;;;;;;;;5030879;28;20221;-74
2022/05/15 07:52:13;;;;;;;8.82;3.50;;;;;;;;;;5026957;28;20219;-75
2022/05/15 07:54:43;;;;;;;9.90;3.30;;;;;;;;;;5032633;28;20633;-75
2022/05/15 07:57:12;;;;;;;9.43;4.60;;;;;;;;;;5031326;28;20686;-74
2022/05/15 07:59:41;;;;;;;10.55;4.38;;;;;;;;;;5031335;28;20302;-75
2022/05/15 08:02:09;;;;;;;8.60;3.72;;;;;;;;;;5032724;28;20552;-74
2022/05/15 08:10:09;;;;;;;8.93;3.78;;;;;;;;;;5035570;28;20209;-75
2022/05/15 08:12:38;;;;;;;7.25;3.40;;;;;;;;;;5036511;28;20211;-75
2022/05/15 08:15:08;;;;;;;10.85;4.22;;;;;;;;;;5037574;28;20211;-75
2022/05/15 08:17:37;;;;;;;14.10;4.10;;;;;;;;;;5037385;28;20234;-74
2022/05/15 08:25:42;;;;;;;10.75;3.45;;;;;;;;;;5026096;28;20567;-74
2022/05/15 08:28:10;;;;;;;8.45;3.60;;;;;;;;;;5036756;28;20307;-74
2022/05/15 08:30:39;;;;;;;8.52;3.45;;;;;;;;;;5034481;28;20310;-76
2022/05/15 08:33:10;;;;;;;11.90;4.05;;;;;;;;;;5031645;28;20238;-74
2022/05/15 08:35:38;;;;;;;9.93;3.17;;;;;;;;;;5037843;28;20674;-75
2022/05/15 08:38:07;;;;;;;10.35;3.78;;;;;;;;;;5053130;28;20222;-74
2022/05/15 08:40:39;;;;;;;10.77;3.88;;;;;;;;;;5035918;28;20212;-75
2022/05/15 08:43:10;;;;;;;12.57;4.13;;;;;;;;;;5033071;28;20212;-74
2022/05/15 08:45:43;;;;;;;11.02;3.80;;;;;;;;;;5035563;28;20208;-74
2022/05/15 08:48:13;;;;;;;9.50;3.60;;;;;;;;;;5035262;28;20220;-75
2022/05/15 08:50:45;;;;;;;11.73;4.03;;;;;;;;;;5036288;28;20570;-75
2022/05/15 08:53:19;;;;;;;7.57;3.50;;;;;;;;;;5054477;28;20206;-76
2022/05/15 08:55:49;;;;;;;11.45;3.55;;;;;;;;;;5053335;28;20211;-76
2022/05/15 08:58:22;;;;;;;10.90;3.63;;;;;;;;;;5033501;28;21092;-76
2022/05/15 09:00:51;;;;;;;11.50;4.15;;;;;;;;;;5032130;28;20200;-77
2022/05/15 09:03:21;;;;;;;8.50;3.50;;;;;;;;;;5036351;28;20215;-76
2022/05/15 09:05:53;;;;;;;8.32;3.60;;;;;;;;;;5043102;28;20285;-75
2022/05/15 09:08:35;;;;;;;11.60;4.00;;;;;;;;;;5034473;28;20769;-78
2022/05/15 09:11:06;;;;;;;10.38;4.20;;;;;;;;;;5036024;28;20733;-75
2022/05/15 09:13:38;;;;;;;8.68;3.63;;;;;;;;;;5033892;28;20604;-76
2022/05/15 09:16:11;;;;;;;12.98;3.75;;;;;;;;;;5041542;28;20250;-76
2022/05/15 09:18:40;;;;;;;12.52;4.00;;;;;;;;;;5031607;28;20224;-76
2022/05/15 09:21:09;;;;;;;10.65;3.72;;;;;;;;;;5034445;28;20208;-76
2022/05/15 09:23:39;;;;;;;9.52;3.78;;;;;;;;;;5034106;28;20199;-75
2022/05/15 09:26:13;;;;;;;11.95;4.20;;;;;;;;;;5030797;28;20203;-77
2022/05/15 09:28:45;;;;;;;11.75;3.92;;;;;;;;;;5034114;28;20219;-75
2022/05/15 09:31:22;;;;;;;9.32;3.60;;;;;;;;;;5034797;28;20246;-76
2022/05/15 09:33:53;;;;;;;12.93;3.97;;;;;;;;;;5035445;28;20537;-77
2022/05/15 09:36:24;;;;;;;11.52;3.72;;;;;;;;;;5029249;28;20209;-76
2022/05/15 09:39:07;;;;;;;11.20;3.63;;;;;;;;;;5028505;28;20224;-77
2022/05/15 09:44:27;;;;;;;9.93;3.90;;;;;;;;;;5029812;28;20666;-75
2022/05/15 09:46:59;;;;;;;13.52;4.18;;;;;;;;;;5033955;28;20566;-75
2022/05/15 09:49:29;;;;;;;12.07;4.30;;;;;;;;;;5031071;28;20210;-76
2022/05/15 09:51:59;;;;;;;12.68;3.60;;;;;;;;;;5032125;28;20694;-75
2022/05/15 09:54:43;;;;;;;12.55;4.22;;;;;;;;;;5030601;28;20263;-75
2022/05/15 09:57:14;;;;;;;13.40;4.00;;;;;;;;;;5034703;28;20222;-76
2022/05/15 09:59:44;;;;;;;10.38;3.80;;;;;;;;;;5029296;28;20727;-75
2022/05/15 10:02:18;;;;;;;11.38;3.60;;;;;;;;;;5029881;28;20685;-76
2022/05/15 10:04:49;;;;;;;11.57;4.03;;;;;;;;;;5031305;28;20207;-76
2022/05/15 10:07:33;;;;;;;9.55;3.50;;;;;;;;;;5032077;28;20238;-76
2022/05/15 10:10:14;;;;;;;10.18;3.70;;;;;;;;;;5029759;28;20290;-76
2022/05/15 10:12:44;;;;;;;9.60;3.53;;;;;;;;;;5052941;28;20266;-76
2022/05/15 10:15:16;;;;;;;9.30;3.70;;;;;;;;;;5045086;28;20219;-77
2022/05/15 10:17:47;;;;;;;8.77;3.50;;;;;;;;;;5030903;28;20227;-77
2022/05/15 10:20:21;;;;;;;9.82;3.55;;;;;;;;;;5033925;28;20211;-77
2022/05/15 10:22:54;;;;;;;9.57;3.88;;;;;;;;;;5023447;28;20249;-76
2022/05/15 10:25:24;;;;;;;12.23;4.10;;;;;;;;;;5030226;28;20762;-76
2022/05/15 10:27:55;;;;;;;8.13;3.60;;;;;;;;;;5030186;28;20623;-76
2022/05/15 10:30:31;;;;;;;9.43;3.70;;;;;;;;;;5029144;28;20294;-75
2022/05/15 10:33:01;;;;;;;10.75;3.65;;;;;;;;;;5026414;28;20266;-76
2022/05/15 10:35:36;;;;;;;10.18;4.13;;;;;;;;;;5034576;28;20203;-75
2022/05/15 10:38:10;;;;;;;11.23;3.92;;;;;;;;;;5033807;28;20237;-75
2022/05/15 10:40:48;;;;;;;8.07;3.75;;;;;;;;;;5033047;28;20203;-75
2022/05/15 10:43:28;;;;;;;9.88;3.40;;;;;;;;;;5025520;28;20188;-75
2022/05/15 10:45:59;;;;;;;10.45;3.67;;;;;;;;;;5027539;28;20191;-76
2022/05/15 10:48:46;;;;;;;10.50;4.07;;;;;;;;;;5030263;28;20231;-75
2022/05/15 10:51:17;;;;;;;8.32;3.35;;;;;;;;;;5033814;28;20230;-75
2022/05/15 10:59:38;;;;;;;10.48;3.92;;;;;;;;;;5021967;28;20219;-75
2022/05/15 11:02:26;;;;;;;8.88;3.78;;;;;;;;;;5030145;28;20191;-75
2022/05/15 11:04:56;;;;;;;9.68;3.63;;;;;;;;;;5032549;28;20651;-75
2022/05/15 11:07:30;;;;;;;8.60;3.30;;;;;;;;;;5033382;28;20223;-76
2022/05/15 11:10:06;;;;;;;9.20;3.47;;;;;;;;;;5027644;28;20204;-75
2022/05/15 11:12:48;;;;;;;10.85;3.50;;;;;;;;;;5028119;28;20254;-76
2022/05/15 11:15:27;;;;;;;7.50;3.28;;;;;;;;;;5028659;28;20207;-75
2022/05/15 11:18:02;;;;;;;11.00;3.63;;;;;;;;;;5025875;28;20223;-76
2022/05/15 11:20:41;;;;;;;9.95;3.47;;;;;;;;;;5030125;28;20299;-78
2022/05/15 11:23:14;;;;;;;8.82;3.10;;;;;;;;;;5032363;28;20210;-76
2022/05/15 11:25:45;;;;;;;9.13;3.40;;;;;;;;;;5022654;28;20200;-76
2022/05/15 11:28:29;;;;;;;11.27;3.72;;;;;;;;;;5029200;28;20265;-75
2022/05/15 11:31:09;;;;;;;6.93;3.20;;;;;;;;;;5033902;28;20618;-76
2022/05/15 11:33:51;;;;;;;9.55;3.80;;;;;;;;;;5025828;28;20216;-75
2022/05/15 11:36:33;;;;;;;7.75;3.17;;;;;;;;;;5032972;28;20208;-75
2022/05/15 11:39:03;;;;;;;7.28;3.40;;;;;;;;;;5027166;28;20545;-75
2022/05/15 11:41:32;;;;;;;7.53;3.28;;;;;;;;;;5027876;28;20207;-77
2022/05/15 11:44:03;;;;;;;9.02;3.25;;;;;;;;;;5028142;28;20208;-76
2022/05/15 11:47:01;;;;;;;8.65;3.40;;;;;;;;;;5023422;28;20210;-76
2022/05/15 11:49:36;;;;;;;7.43;3.42;;;;;;;;;;4968492;28;20261;-75
2022/05/15 11:52:19;;;;;;;9.63;3.20;;;;;;;;;;5022427;28;20286;-75
2022/05/15 11:54:49;;;;;;;10.43;3.60;;;;;;;;;;5020468;28;20611;-76
2022/05/15 11:57:35;;;;;;;8.40;3.40;;;;;;;;;;5034192;28;20689;-76
2022/05/15 12:00:07;;;;;;;8.88;3.28;;;;;;;;;;5029228;28;20199;-76
2022/05/15 12:02:48;;;;;;;6.88;3.38;;;;;;;;;;5030734;28;20283;-77
2022/05/15 12:05:25;;;;;;;11.38;3.60;;;;;;;;;;5029960;28;20261;-76
2022/05/15 12:07:56;;;;;;;9.82;3.35;;;;;;;;;;5029968;28;20227;-75
2022/05/15 12:10:44;;;;;;;8.52;3.45;;;;;;;;;;5034232;28;20242;-76
2022/05/15 12:13:13;;;;;;;10.48;3.58;;;;;;;;;;5020264;28;20224;-76
2022/05/15 12:15:45;;;;;;;7.97;3.40;;;;;;;;;;5024733;28;20200;-76
2022/05/15 12:18:20;;;;;;;9.73;3.30;;;;;;;;;;5030480;28;20239;-77
2022/05/15 12:20:52;;;;;;;7.82;3.33;;;;;;;;;;5029194;28;20278;-75
2022/05/15 12:23:21;;;;;;;9.05;3.35;;;;;;;;;;5031305;28;20663;-75
2022/05/15 12:25:54;;;;;;;7.65;3.17;;;;;;;;;;5032514;28;20234;-75
2022/05/15 12:31:18;;;;;;;8.45;3.50;;;;;;;;;;5023753;28;20800;-75
2022/05/15 12:34:07;;;;;;;7.63;3.10;;;;;;;;;;5028115;28;20239;-75
2022/05/15 12:36:39;;;;;;;8.82;3.47;;;;;;;;;;5028555;28;20207;-75
2022/05/15 12:39:08;;;;;;;7.82;3.45;;;;;;;;;;5026454;28;20310;-75
2022/05/15 12:41:37;;;;;;;7.28;3.22;;;;;;;;;;5024566;28;20655;-75
2022/05/15 12:44:08;;;;;;;9.60;3.33;;;;;;;;;;5029353;28;20670;-75
2022/05/15 12:46:37;;;;;;;6.25;3.00;;;;;;;;;;5026381;28;20208;-75
2022/05/15 12:49:06;;;;;;;9.10;3.80;;;;;;;;;;5026336;28;20224;-75
2022/05/15 12:51:38;;;;;;;8.95;3.47;;;;;;;;;;5031006;28;20235;-75
2022/05/15 12:54:21;;;;;;;8.48;3.65;;;;;;;;;;5029805;28;20224;-76
2022/05/15 12:56:58;;;;;;;8.30;3.40;;;;;;;;;;5032839;28;20670;-75
2022/05/15 12:59:27;;;;;;;8.65;3.60;;;;;;;;;;5032664;28;20257;-75
2022/05/15 13:01:56;;;;;;;9.88;3.28;;;;;;;;;;5014215;28;20209;-76
2022/05/15 13:04:27;;;;;;;8.13;3.33;;;;;;;;;;5029107;28;20566;-75
2022/05/15 13:06:58;;;;;;;8.65;3.28;;;;;;;;;;5034543;28;20207;-77
2022/05/15 13:09:28;;;;;;;8.65;3.30;;;;;;;;;;5034624;28;20200;-75
2022/05/15 13:11:58;;;;;;;9.50;3.40;;;;;;;;;;5034306;28;20207;-76
2022/05/15 13:14:30;;;;;;;9.23;3.10;;;;;;;;;;5028615;28;20242;-76
2022/05/15 13:16:59;;;;;;;7.07;3.10;;;;;;;;;;5029588;28;20232;-76
2022/05/15 13:19:30;;;;;;;7.25;3.20;;;;;;;;;;5021040;28;20200;-77
2022/05/15 13:22:01;;;;;;;8.02;3.00;;;;;;;;;;5026076;28;20224;-75
2022/05/15 13:24:31;;;;;;;10.63;3.40;;;;;;;;;;5026589;28;20257;-75
2022/05/15 13:27:05;;;;;;;11.25;3.10;;;;;;;;;;5027152;28;20223;-75
2022/05/15 13:29:35;;;;;;;9.82;3.13;;;;;;;;;;5022622;28;20213;-75
2022/05/15 13:32:04;;;;;;;7.90;3.40;;;;;;;;;;5028806;28;20204;-75
2022/05/15 13:34:32;;;;;;;6.85;2.90;;;;;;;;;;5017944;28;20232;-75
2022/05/15 13:37:04;;;;;;;9.02;3.25;;;;;;;;;;5023813;28;20283;-75
2022/05/15 13:45:10;;;;;;;8.90;3.10;;;;;;;;;;5026091;28;20212;-75
2022/05/15 13:47:53;;;;;;;6.93;3.05;;;;;;;;;;5030712;28;20594;-76
2022/05/15 13:50:34;;;;;;;7.28;2.83;;;;;;;;;;5026134;28;20215;-76
2022/05/15 13:55:57;;;;;;;5.57;2.78;;;;;;;;;;5061040;28;20560;-76
2022/05/15 13:58:42;;;;;;;8.05;3.35;;;;;;;;;;5070472;28;20217;-77
2022/05/15 14:01:16;;;;;;;8.48;3.08;;;;;;;;;;5063101;28;20252;-76
2022/05/15 14:03:45;;;;;;;5.95;2.67;;;;;;;;;;5058521;28;20243;-77
2022/05/15 14:06:15;;;;;;;8.45;3.42;;;;;;;;;;5061658;28;20213;-76
2022/05/15 14:08:56;;;;;;;7.68;3.17;;;;;;;;;;5059960;28;20238;-76
2022/05/15 14:11:26;;;;;;;6.75;2.60;;;;;;;;;;5066052;28;20206;-76
2022/05/15 14:13:55;;;;;;;7.07;3.08;;;;;;;;;;5063308;28;20202;-76
2022/05/15 14:16:26;;;;;;;7.63;3.08;;;;;;;;;;5067938;28;20206;-76
2022/05/15 14:18:55;;;;;;;7.95;2.85;;;;;;;;;;5064569;28;20230;-77
2022/05/15 14:21:26;;;;;;;7.82;3.15;;;;;;;;;;5064948;28;20211;-76
2022/05/15 14:23:55;;;;;;;11.18;3.10;;;;;;;;;;5067261;28;20233;-76
2022/05/15 14:26:24;;;;;;;7.38;3.22;;;;;;;;;;5060476;28;20211;-76
2022/05/15 14:28:54;;;;;;;7.32;2.78;;;;;;;;;;5062237;28;20223;-76
2022/05/15 14:31:24;;;;;;;8.90;2.90;;;;;;;;;;5066554;28;20195;-77
2022/05/15 14:33:58;;;;;;;8.07;3.10;;;;;;;;;;5049555;28;20226;-76
2022/05/15 14:36:26;;;;;;;6.47;3.13;;;;;;;;;;5057660;28;20257;-76
2022/05/15 14:38:55;;;;;;;8.10;3.17;;;;;;;;;;5054962;28;20229;-76
2022/05/15 14:41:24;;;;;;;6.78;2.90;;;;;;;;;;5065502;28;20230;-76
2022/05/15 14:43:52;;;;;;;4.55;2.55;;;;;;;;;;5063236;28;20203;-76
2022/05/15 14:46:23;;;;;;;7.35;2.97;;;;;;;;;;5062427;28;20218;-76
2022/05/15 14:48:53;;;;;;;7.38;3.00;;;;;;;;;;5061006;28;20227;-76
2022/05/15 14:51:24;;;;;;;6.82;2.80;;;;;;;;;;5065062;28;20268;-76
2022/05/15 14:53:52;;;;;;;7.13;3.15;;;;;;;;;;5065782;28;20206;-76
2022/05/15 14:56:21;;;;;;;4.82;2.88;;;;;;;;;;5064130;28;20237;-77
2022/05/15 14:58:52;;;;;;;9.95;3.08;;;;;;;;;;5062690;28;20295;-77
2022/05/15 15:01:21;;;;;;;7.47;2.60;;;;;;;;;;5064939;28;20268;-76
2022/05/15 15:03:51;;;;;;;4.82;2.55;;;;;;;;;;5065096;28;20215;-76
2022/05/15 15:06:20;;;;;;;6.53;2.85;;;;;;;;;;5055830;28;20199;-76
2022/05/15 15:08:49;;;;;;;5.05;2.80;;;;;;;;;;5053646;28;20249;-76
2022/05/15 15:11:20;;;;;;;7.05;3.10;;;;;;;;;;5051112;28;20214;-76
2022/05/15 15:13:49;;;;;;;10.88;2.80;;;;;;;;;;5045810;28;20222;-76
2022/05/15 15:16:20;;;;;;;6.13;2.80;;;;;;;;;;5049033;28;20238;-75
2022/05/15 15:18:50;;;;;;;7.90;2.47;;;;;;;;;;5045002;28;20227;-75
2022/05/15 15:21:19;;;;;;;5.57;2.88;;;;;;;;;;5046831;28;20666;-76
2022/05/15 15:23:47;;;;;;;8.75;2.65;;;;;;;;;;5050182;28;20210;-76
2022/05/15 15:26:16;;;;;;;6.07;2.72;;;;;;;;;;5054110;28;20195;-76
2022/05/15 15:28:44;;;;;;;6.90;2.90;;;;;;;;;;5038322;28;20232;-77
2022/05/15 15:31:13;;;;;;;6.03;3.00;;;;;;;;;;5048534;28;20207;-76
2022/05/15 15:33:42;;;;;;;6.05;2.90;;;;;;;;;;5053203;28;20207;-76